Time;durP1;ratioP1;P1;durP2;ratioP2;P2;SDS_P1;SDS_P2;PMS_P1;PMS_P2;Temp;Humidity;BMP_temperature;BMP_pressure;BME280_temperature;BME280_humidity;BME280_pressure;Samples;Min_cycle;Max_cycle;Signal;HPM_P1;HPM_P2
2023/03/02 12:22:30;;;;;;;;;62.25;50.75;;;;;6.98;76.38;101768.63;4890552;29;49776;-67
2023/03/02 12:25:19;;;;;;;;;66.75;53.75;;;;;6.92;74.42;101768.28;4896991;28;50207;-74
2023/03/02 12:27:47;;;;;;;;;66.25;52.25;;;;;5.89;75.19;101566.44;4869179;29;51384;-75
2023/03/02 12:30:17;;;;;;;;;55.75;45.50;;;;;7.31;75.18;101799.03;4891997;28;49899;-73
2023/03/02 12:32:45;;;;;;;;;64.50;50.25;;;;;6.66;74.11;101715.69;4876235;28;50080;-74
2023/03/02 12:35:16;;;;;;;;;59.75;49.75;;;;;6.17;73.12;101634.84;4893733;29;49929;-75
2023/03/02 12:37:52;;;;;;;;;58.25;48.25;;;;;7.44;72.72;101793.63;4893242;29;50638;-75
2023/03/02 12:40:40;;;;;;;;;62.25;48.50;;;;;6.04;73.06;101598.53;4894342;29;49870;-78
2023/03/02 12:43:19;;;;;;;;;61.25;48.50;;;;;6.78;72.33;101656.28;4876587;29;50029;-77
2023/03/02 12:46:25;;;;;;;;;53.00;44.50;;;;;7.27;72.79;101729.22;4894059;29;49854;-78
2023/03/02 12:49:10;;;;;;;;;58.50;48.75;;;;;7.65;71.71;101792.91;4876290;29;49957;-78
2023/03/02 12:51:57;;;;;;;;;58.00;46.25;;;;;6.22;71.42;101542.13;4859692;28;49674;-71
2023/03/02 12:54:30;;;;;;;;;52.00;43.50;;;;;6.87;72.72;101634.97;4893659;29;49727;-69
2023/03/02 12:57:07;;;;;;;;;53.25;42.00;;;;;7.60;71.81;101744.72;4887458;29;49636;-65
2023/03/02 12:59:33;;;;;;;;;53.50;45.75;;;;;7.70;71.99;101757.41;4893732;29;50510;-65
2023/03/02 13:02:15;;;;;;;;;59.25;50.75;;;;;7.70;70.62;101736.50;4893770;29;49926;-66
2023/03/02 13:04:40;;;;;;;;;61.25;48.00;;;;;7.86;72.00;101746.88;4893928;29;49769;-67
2023/03/02 13:07:14;;;;;;;;;59.25;44.75;;;;;8.03;71.46;101747.69;4894220;29;50084;-69
2023/03/02 13:09:39;;;;;;;;;60.00;44.75;;;;;7.95;70.69;101731.63;4894002;29;49612;-67
2023/03/02 13:12:13;;;;;;;;;58.00;48.00;;;;;8.02;69.80;101736.31;4894107;29;50033;-67
2023/03/02 13:14:41;;;;;;;;;59.00;45.25;;;;;8.11;69.20;101743.69;4894008;29;49923;-64
2023/03/02 13:17:25;;;;;;;;;57.50;46.50;;;;;7.86;70.17;101688.47;4894393;29;49736;-71
2023/03/02 13:19:51;;;;;;;;;59.75;45.00;;;;;7.82;70.33;101692.66;4875865;29;50292;-72
2023/03/02 13:22:19;;;;;;;;;67.00;51.50;;;;;7.53;70.95;101615.53;4893567;29;49825;-67
2023/03/02 13:24:44;;;;;;;;;58.75;47.00;;;;;8.33;69.27;101749.09;4893984;29;49758;-68
2023/03/02 13:27:16;;;;;;;;;52.75;44.25;;;;;8.41;70.19;101745.97;4894074;29;49690;-65
2023/03/02 13:29:41;;;;;;;;;62.50;48.50;;;;;8.12;69.57;101690.56;4893642;29;49941;-66
2023/03/02 13:32:33;;;;;;;;;59.50;49.50;;;;;8.30;69.47;101711.44;4894065;28;49726;-65
2023/03/02 13:35:01;;;;;;;;;66.25;51.75;;;;;8.42;68.70;101724.19;4889751;29;49741;-66
2023/03/02 13:37:36;;;;;;;;;62.00;48.75;;;;;8.64;67.34;101750.47;4893593;29;49880;-68
2023/03/02 13:40:04;;;;;;;;;53.50;44.50;;;;;8.49;68.09;101695.75;4899317;29;49900;-65
2023/03/02 13:42:39;;;;;;;;;55.50;44.75;;;;;8.54;67.59;101668.06;4893460;29;49847;-64
2023/03/02 13:45:18;;;;;;;;;60.75;47.50;;;;;8.99;66.87;101738.94;4893779;29;49878;-66
2023/03/02 13:47:44;;;;;;;;;60.50;48.75;;;;;9.20;66.78;101744.19;4893639;29;49772;-67
2023/03/02 13:50:19;;;;;;;;;65.25;51.00;;;;;9.04;66.10;101708.59;4893166;29;49830;-65
2023/03/02 13:52:45;;;;;;;;;55.00;45.50;;;;;9.20;66.04;101704.00;4892560;29;49863;-64
2023/03/02 13:55:16;;;;;;;;;60.75;47.50;;;;;9.21;65.15;101697.91;4887387;29;49748;-66
2023/03/02 13:57:44;;;;;;;;;55.50;46.00;;;;;9.49;64.91;101727.03;4893776;29;49959;-69
2023/03/02 14:00:14;;;;;;;;;54.00;45.50;;;;;9.43;64.73;101701.47;4893107;29;50079;-66
2023/03/02 14:02:41;;;;;;;;;56.00;41.00;;;;;9.39;64.74;101673.34;4893042;29;49869;-67
2023/03/02 14:05:15;;;;;;;;;50.25;43.50;;;;;9.46;64.53;101666.66;4897246;29;49910;-66
2023/03/02 14:07:40;;;;;;;;;55.50;45.50;;;;;9.32;63.68;101620.63;4899077;29;49854;-68
2023/03/02 14:10:05;;;;;;;;;55.50;44.50;;;;;9.35;63.79;101612.88;4902675;29;63646;-63
2023/03/02 14:12:32;;;;;;;;;59.50;45.50;;;;;9.87;63.17;101698.81;4893437;29;49893;-67
2023/03/02 14:15:01;;;;;;;;;60.75;50.00;;;;;9.83;62.55;101691.66;4893424;29;49792;-68
2023/03/02 14:17:26;;;;;;;;;61.25;49.00;;;;;9.68;62.49;101703.34;4893495;29;49824;-66
2023/03/02 14:19:54;;;;;;;;;49.75;42.25;;;;;9.79;62.41;101722.13;4892709;29;50973;-66
2023/03/02 14:22:20;;;;;;;;;56.00;44.25;;;;;9.68;63.45;101699.84;4902579;29;49569;-65
2023/03/02 14:24:46;;;;;;;;;61.50;49.25;;;;;9.63;63.00;101686.53;4897725;29;49867;-63
2023/03/02 14:27:14;;;;;;;;;62.25;50.50;;;;;9.92;63.39;101749.72;4903112;29;49716;-67
2023/03/02 14:29:41;;;;;;;;;57.50;46.00;;;;;10.00;63.60;101743.03;4909972;29;50191;-63
2023/03/02 14:32:09;;;;;;;;;53.50;46.00;;;;;9.56;62.98;101678.38;4912245;29;49411;-66
2023/03/02 14:34:35;;;;;;;;;59.00;49.00;;;;;9.69;63.17;101736.59;4910720;29;49667;-63
2023/03/02 14:37:07;;;;;;;;;60.50;45.00;;;;;9.42;64.36;101672.56;4909429;28;49775;-63
2023/03/02 14:39:38;;;;;;;;;60.75;49.75;;;;;9.90;64.35;101743.50;4912446;29;49771;-65
2023/03/02 14:42:05;;;;;;;;;45.75;35.25;;;;;9.59;64.60;101687.25;4911784;28;49490;-72
2023/03/02 14:44:31;;;;;;;;;55.00;47.00;;;;;9.04;64.06;101608.16;4900672;28;49896;-67
2023/03/02 14:46:57;;;;;;;;;58.25;46.25;;;;;9.27;63.47;101659.78;4895948;28;49823;-62
2023/03/02 14:49:24;;;;;;;;;56.25;47.00;;;;;9.73;65.35;101741.09;4892209;29;52399;-61
2023/03/02 14:52:14;;;;;;;;;55.00;46.00;;;;;9.64;65.23;101724.13;4878094;29;50090;-62
2023/03/02 14:54:45;;;;;;;;;63.25;50.25;;;;;9.66;65.32;101743.44;4894582;29;49895;-62
2023/03/02 14:57:34;;;;;;;;;63.25;47.00;;;;;9.42;65.20;101723.25;4896393;29;49915;-63
2023/03/02 14:59:59;;;;;;;;;61.00;51.50;;;;;9.45;65.12;101731.25;4897242;29;49995;-62
2023/03/02 15:02:24;;;;;;;;;58.75;48.00;;;;;9.50;65.40;101755.03;4894184;29;49682;-64
2023/03/02 15:04:53;;;;;;;;;57.00;44.50;;;;;9.35;66.13;101713.34;4894158;29;49703;-62
2023/03/02 15:07:19;;;;;;;;;61.50;49.25;;;;;9.00;66.13;101672.63;4902364;29;50002;-62
2023/03/02 15:09:45;;;;;;;;;55.50;44.75;;;;;8.75;66.25;101620.94;4898309;29;51152;-68
2023/03/02 15:12:11;;;;;;;;;58.00;46.50;;;;;8.57;66.04;101600.13;4902141;29;49767;-68
2023/03/02 15:14:36;;;;;;;;;61.50;44.50;;;;;9.15;66.75;101703.78;4895776;29;50041;-68
2023/03/02 15:17:02;;;;;;;;;56.50;47.00;;;;;9.00;67.42;101664.78;4900055;29;49848;-68
2023/03/02 15:19:28;;;;;;;;;59.00;46.25;;;;;9.27;67.39;101708.66;4910694;29;50419;-69
2023/03/02 15:21:53;;;;;;;;;47.25;42.75;;;;;9.43;67.71;101717.19;4910828;29;49577;-68
2023/03/02 15:24:21;;;;;;;;;62.00;48.75;;;;;9.49;68.08;101734.91;4912856;29;49353;-68
2023/03/02 15:26:48;;;;;;;;;61.25;47.75;;;;;9.19;67.56;101690.00;4911373;29;49605;-69
2023/03/02 15:29:13;;;;;;;;;57.25;47.25;;;;;8.82;67.65;101609.03;4904269;29;49812;-68
2023/03/02 15:31:38;;;;;;;;;55.50;47.00;;;;;9.45;68.20;101743.44;4912673;29;49183;-68
2023/03/02 15:34:04;;;;;;;;;60.75;46.75;;;;;9.38;67.86;101755.44;4897946;29;49834;-68
2023/03/02 15:36:30;;;;;;;;;63.75;51.00;;;;;8.98;68.48;101699.59;4895693;29;49962;-68
2023/03/02 15:38:55;;;;;;;;;56.50;45.50;;;;;9.20;67.97;101711.84;4895036;29;51858;-64
2023/03/02 15:41:21;;;;;;;;;56.00;44.50;;;;;8.76;68.81;101627.06;4899258;29;49851;-68
2023/03/02 15:43:51;;;;;;;;;52.00;43.00;;;;;9.14;68.89;101691.53;4891764;29;50041;-67
2023/03/02 15:46:16;;;;;;;;;50.00;41.00;;;;;9.26;69.59;101706.84;4893421;28;50115;-73
2023/03/02 15:48:41;;;;;;;;;56.50;44.75;;;;;9.27;69.87;101712.19;4890267;29;52696;-70
2023/03/02 15:51:07;;;;;;;;;56.00;43.00;;;;;9.33;70.42;101728.13;4899774;29;53727;-67
2023/03/02 15:53:35;;;;;;;;;53.25;38.75;;;;;9.03;69.64;101670.13;4904533;28;49807;-74
2023/03/02 15:56:11;;;;;;;;;60.50;46.00;;;;;9.30;70.42;101729.75;4909551;28;49778;-72
2023/03/02 15:58:37;;;;;;;;;51.50;43.75;;;;;9.13;70.19;101718.56;4895780;28;50810;-75
2023/03/02 16:01:07;;;;;;;;;61.75;47.75;;;;;8.66;70.18;101627.53;4900760;29;49800;-73
2023/03/02 16:03:33;;;;;;;;;48.00;41.00;;;;;9.23;69.91;101738.16;4895804;29;49453;-70
2023/03/02 16:05:59;;;;;;;;;51.50;46.00;;;;;9.05;71.18;101706.84;4909277;28;49649;-68
2023/03/02 16:08:24;;;;;;;;;56.25;44.25;;;;;9.00;71.16;101704.06;4909114;29;49528;-69
2023/03/02 16:11:02;;;;;;;;;56.25;46.25;;;;;9.15;70.73;101743.97;4909562;29;49370;-70
2023/03/02 16:13:29;;;;;;;;;50.75;41.25;;;;;8.52;71.37;101640.94;4910052;29;49501;-68
2023/03/02 16:15:55;;;;;;;;;46.75;40.25;;;;;8.98;71.18;101741.50;4906863;29;48982;-67
2023/03/02 16:18:20;;;;;;;;;54.50;43.00;;;;;9.02;71.74;101765.25;4895006;29;50753;-67
2023/03/02 16:20:45;;;;;;;;;56.25;46.25;;;;;8.92;72.32;101751.69;4899740;29;55806;-71
2023/03/02 16:23:11;;;;;;;;;51.00;42.50;;;;;8.93;72.74;101748.25;4902601;29;49685;-67
2023/03/02 16:25:46;;;;;;;;;47.00;40.00;;;;;8.82;73.41;101742.53;4910521;29;49472;-66
2023/03/02 16:28:12;;;;;;;;;52.00;45.00;;;;;8.69;74.29;101732.38;4908212;29;49776;-65
2023/03/02 16:30:39;;;;;;;;;61.00;48.25;;;;;8.77;74.99;101750.19;4910818;29;49534;-64
2023/03/02 16:33:07;;;;;;;;;48.25;40.50;;;;;8.78;75.12;101748.47;4906569;29;49392;-64
2023/03/02 16:35:34;;;;;;;;;55.50;44.25;;;;;8.84;75.67;101765.34;4909692;29;49702;-64
2023/03/02 16:38:00;;;;;;;;;62.50;49.50;;;;;8.36;75.85;101689.91;4892621;29;51396;-64
2023/03/02 16:40:26;;;;;;;;;56.50;46.25;;;;;8.62;76.92;101746.03;4910822;29;49604;-65
2023/03/02 16:42:51;;;;;;;;;56.25;46.75;;;;;8.43;77.42;101718.13;4909185;29;49422;-64
2023/03/02 16:45:18;;;;;;;;;58.50;47.25;;;;;8.63;77.44;101756.56;4911326;29;49581;-65
2023/03/02 16:47:44;;;;;;;;;45.25;41.00;;;;;8.57;77.47;101751.03;4909859;29;49671;-63
2023/03/02 16:50:11;;;;;;;;;57.75;45.50;;;;;8.67;78.11;101776.78;4911610;28;49771;-65
2023/03/02 16:52:36;;;;;;;;;46.75;42.00;;;;;8.58;78.97;101772.03;4908518;29;49468;-62
2023/03/02 16:55:03;;;;;;;;;53.50;44.25;;;;;8.44;79.30;101752.22;4910489;29;49431;-65
2023/03/02 16:57:29;;;;;;;;;63.50;52.50;;;;;8.28;80.00;101737.50;4911255;28;49378;-65
2023/03/02 16:59:54;;;;;;;;;56.50;45.00;;;;;8.57;81.12;101788.56;4911543;29;52595;-64
2023/03/02 17:02:19;;;;;;;;;55.75;44.00;;;;;8.27;81.22;101747.91;4903215;29;50944;-67
2023/03/02 17:04:45;;;;;;;;;49.25;41.25;;;;;8.11;81.39;101724.50;4860898;29;49953;-67
2023/03/02 17:07:10;;;;;;;;;58.75;46.50;;;;;8.32;82.23;101778.69;4892472;29;50752;-64
2023/03/02 17:09:40;;;;;;;;;47.00;42.00;;;;;8.35;82.01;101790.16;4892055;29;50114;-63
2023/03/02 17:12:06;;;;;;;;;51.00;44.00;;;;;8.33;82.77;101798.78;4892193;29;49934;-63
2023/03/02 17:14:31;;;;;;;;;55.00;46.00;;;;;8.06;83.53;101768.72;4875489;29;49818;-65
2023/03/02 17:16:57;;;;;;;;;56.25;45.50;;;;;8.04;84.61;101766.03;4891875;29;50903;-65
2023/03/02 17:19:22;;;;;;;;;56.75;47.00;;;;;8.08;84.60;101777.53;4891705;29;49871;-66
2023/03/02 17:21:48;;;;;;;;;50.50;42.75;;;;;8.07;85.05;101790.53;4875249;29;50234;-69
2023/03/02 17:24:13;;;;;;;;;46.50;38.25;;;;;7.98;85.77;101781.44;4893373;29;49924;-64
2023/03/02 17:26:39;;;;;;;;;58.75;47.00;;;;;8.03;85.48;101795.63;4893890;29;49920;-66
2023/03/02 17:29:06;;;;;;;;;65.75;49.50;;;;;7.30;86.41;101665.75;4893854;29;49698;-63
2023/03/02 17:31:32;;;;;;;;;59.25;49.75;;;;;7.97;86.76;101810.13;4893819;29;49997;-63
2023/03/02 17:33:57;;;;;;;;;54.00;42.25;;;;;7.93;87.61;101805.59;4892458;28;49797;-68
2023/03/02 17:36:22;;;;;;;;;55.50;46.75;;;;;7.65;87.34;101758.94;4876947;29;52458;-65
2023/03/02 17:38:48;;;;;;;;;50.25;43.75;;;;;7.64;88.89;101767.59;4893585;29;50227;-63
2023/03/02 17:41:13;;;;;;;;;62.25;50.50;;;;;7.26;89.41;101714.34;4893697;29;49646;-64
2023/03/02 17:43:40;;;;;;;;;47.75;37.25;;;;;7.87;89.41;101829.72;4877017;29;50005;-66
2023/03/02 17:46:21;;;;;;;;;60.75;48.25;;;;;7.70;89.93;101809.69;4893514;29;49913;-68
2023/03/02 17:48:49;;;;;;;;;57.25;46.50;;;;;7.60;90.37;101807.44;4893456;29;49892;-62
2023/03/02 17:51:15;;;;;;;;;59.25;48.00;;;;;7.67;90.63;101825.22;4893715;29;49827;-69
2023/03/02 17:53:43;;;;;;;;;61.25;49.25;;;;;7.66;90.82;101828.66;4876868;29;50092;-69
2023/03/02 17:56:09;;;;;;;;;63.75;46.25;;;;;7.45;91.49;101790.19;4893503;29;50082;-67
2023/03/02 17:58:35;;;;;;;;;56.75;48.00;;;;;7.45;92.10;101811.09;4893355;29;50042;-69
2023/03/02 18:01:01;;;;;;;;;54.50;44.75;;;;;7.54;92.17;101839.41;4893612;29;49670;-64
2023/03/02 18:03:27;;;;;;;;;63.75;50.00;;;;;7.51;93.37;101836.63;4893915;29;49774;-64
2023/03/02 18:05:52;;;;;;;;;64.00;50.50;;;;;7.38;93.51;101824.66;4893659;29;50087;-68
2023/03/02 18:08:17;;;;;;;;;46.25;39.25;;;;;7.36;94.12;101847.22;4896758;29;49852;-64
2023/03/02 18:10:43;;;;;;;;;55.50;44.75;;;;;7.33;93.68;101844.41;4896717;29;49854;-70
2023/03/02 18:13:08;;;;;;;;;57.25;47.75;;;;;7.31;94.30;101840.84;4896915;29;49615;-68
2023/03/02 18:15:33;;;;;;;;;49.00;42.75;;;;;7.35;93.73;101855.88;4896563;29;49842;-63
2023/03/02 18:17:59;;;;;;;;;59.25;48.75;;;;;7.44;94.62;101886.78;4895490;28;49792;-68
2023/03/02 18:20:24;;;;;;;;;60.00;45.75;;;;;6.76;94.62;101769.25;4896197;29;49834;-68
2023/03/02 18:22:49;;;;;;;;;58.50;49.00;;;;;7.37;95.36;101884.69;4896827;29;50036;-71
2023/03/02 18:25:15;;;;;;;;;65.25;49.75;;;;;6.96;95.60;101809.44;4895259;28;52368;-65
2023/03/02 18:27:40;;;;;;;;;55.50;46.00;;;;;7.29;96.04;101880.75;4897548;29;50274;-75
2023/03/02 18:30:06;;;;;;;;;53.50;46.25;;;;;7.29;95.27;101884.28;4902834;29;50073;-71
2023/03/02 18:32:32;;;;;;;;;60.75;46.50;;;;;7.24;95.88;101885.78;4903082;29;49800;-69
2023/03/02 18:34:57;;;;;;;;;57.50;46.75;;;;;7.15;96.30;101880.06;4907582;29;49760;-66
2023/03/02 18:37:22;;;;;;;;;59.75;47.75;;;;;7.15;96.12;101883.56;4907204;29;50014;-65
2023/03/02 18:39:48;;;;;;;;;65.00;51.25;;;;;7.11;96.46;101875.47;4899434;28;55840;-72
2023/03/02 18:42:13;;;;;;;;;62.00;48.00;;;;;7.14;96.57;101883.47;4903352;29;50050;-72
2023/03/02 18:44:39;;;;;;;;;55.50;46.75;;;;;7.04;97.64;101883.78;4913191;28;49677;-68
2023/03/02 18:47:06;;;;;;;;;53.00;43.50;;;;;7.12;97.72;101903.38;4913953;29;49445;-68
2023/03/02 18:49:32;;;;;;;;;60.00;48.00;;;;;7.04;98.29;101892.53;4911919;29;49375;-71
2023/03/02 18:51:58;;;;;;;;;57.50;46.00;;;;;6.81;97.78;101852.16;4886473;29;49607;-67
2023/03/02 18:54:24;;;;;;;;;54.50;45.00;;;;;7.10;97.83;101899.78;4896328;29;50435;-65
2023/03/02 18:56:49;;;;;;;;;60.25;50.50;;;;;7.04;98.31;101895.13;4902918;29;49820;-66
2023/03/02 18:59:16;;;;;;;;;46.75;41.25;;;;;6.96;98.13;101896.47;4893534;29;49655;-62
2023/03/02 19:01:43;;;;;;;;;51.25;45.75;;;;;6.73;97.59;101863.91;4910288;29;49848;-61
2023/03/02 19:04:09;;;;;;;;;57.50;48.50;;;;;6.87;98.25;101891.66;4911594;29;50505;-63
2023/03/02 19:06:34;;;;;;;;;63.50;51.50;;;;;6.86;99.97;101891.56;4912428;29;49381;-63
2023/03/02 19:09:00;;;;;;;;;53.50;42.00;;;;;6.74;99.19;101877.84;4911277;28;49441;-67
2023/03/02 19:11:25;;;;;;;;;60.00;47.50;;;;;6.64;98.97;101879.06;4910162;29;49473;-62
2023/03/02 19:13:51;;;;;;;;;59.75;43.00;;;;;6.76;99.54;101890.19;4912300;29;49957;-63
2023/03/02 19:16:16;;;;;;;;;58.50;46.50;;;;;6.54;99.68;101850.66;4910588;29;49526;-63
2023/03/02 19:18:41;;;;;;;;;63.25;51.50;;;;;6.52;100.00;101858.41;4909801;28;49711;-63
2023/03/02 19:21:07;;;;;;;;;53.50;47.00;;;;;6.44;100.00;101857.09;4909900;29;49506;-63
2023/03/02 19:23:32;;;;;;;;;57.75;46.00;;;;;6.36;100.00;101831.41;4911922;29;49749;-63
2023/03/02 19:25:57;;;;;;;;;59.25;49.75;;;;;6.52;100.00;101878.41;4912420;29;59398;-63
2023/03/02 19:28:23;;;;;;;;;51.75;44.50;;;;;6.54;100.00;101880.25;4912884;29;49632;-63
2023/03/02 19:30:49;;;;;;;;;60.25;49.00;;;;;6.64;100.00;101923.41;4912853;29;49458;-63
2023/03/02 19:33:15;;;;;;;;;61.50;51.25;;;;;6.48;100.00;101884.28;4911423;29;50578;-62
2023/03/02 19:35:41;;;;;;;;;60.00;50.00;;;;;6.61;100.00;101915.44;4911537;29;49570;-63
2023/03/02 19:38:07;;;;;;;;;65.25;51.00;;;;;6.47;100.00;101911.19;4902579;29;49757;-62
2023/03/02 19:40:34;;;;;;;;;60.00;50.25;;;;;6.31;100.00;101873.78;4912108;28;49586;-63
2023/03/02 19:42:59;;;;;;;;;68.00;51.75;;;;;6.42;100.00;101896.97;4905312;29;50164;-62
2023/03/02 19:45:28;;;;;;;;;64.50;52.50;;;;;6.48;100.00;101928.63;4905353;29;49709;-65
2023/03/02 19:47:56;;;;;;;;;64.75;51.25;;;;;6.49;100.00;101919.97;4908222;29;49373;-70
2023/03/02 19:50:23;;;;;;;;;67.00;53.25;;;;;6.40;100.00;101914.25;4912054;29;49519;-68
2023/03/02 19:52:51;;;;;;;;;60.50;46.00;;;;;6.43;100.00;101922.22;4895312;29;52128;-65
2023/03/02 19:55:17;;;;;;;;;68.75;52.50;;;;;6.29;100.00;101905.81;4895056;28;49760;-68
2023/03/02 19:57:43;;;;;;;;;55.50;46.00;;;;;5.98;100.00;101856.25;4895686;28;49988;-64
2023/03/02 20:00:13;;;;;;;;;56.25;47.25;;;;;6.24;100.00;101908.16;4895270;29;49621;-63
2023/03/02 20:02:39;;;;;;;;;64.75;51.50;;;;;6.01;100.00;101879.91;4893135;29;51998;-64
2023/03/02 20:05:06;;;;;;;;;69.25;55.50;;;;;6.35;100.00;101932.22;4894396;28;50100;-64
2023/03/02 20:07:32;;;;;;;;;58.75;44.00;;;;;6.20;100.00;101918.34;4894980;28;49791;-64
2023/03/02 20:09:57;;;;;;;;;67.25;51.50;;;;;5.93;100.00;101861.22;4894880;28;49783;-65
2023/03/02 20:12:22;;;;;;;;;61.50;47.50;;;;;6.18;100.00;101914.75;4894618;28;49966;-72
2023/03/02 20:14:49;;;;;;;;;65.50;53.75;;;;;6.15;100.00;101920.66;4894731;29;49686;-66
2023/03/02 20:17:15;;;;;;;;;67.75;50.25;;;;;6.20;100.00;101928.78;4894960;29;49914;-67
2023/03/02 20:19:42;;;;;;;;;65.75;49.50;;;;;6.22;100.00;101942.78;4894430;28;49759;-70
2023/03/02 20:22:09;;;;;;;;;68.33;53.00;;;;;6.22;100.00;101941.06;4894185;28;50514;-70
2023/03/02 20:24:35;;;;;;;;;65.75;51.75;;;;;6.09;100.00;101924.66;4894687;28;50087;-69
2023/03/02 20:27:02;;;;;;;;;72.00;53.75;;;;;5.95;100.00;101906.50;4896814;29;49979;-70
2023/03/02 20:29:28;;;;;;;;;66.00;50.75;;;;;5.86;100.00;101905.03;4894577;29;49918;-75
2023/03/02 20:31:53;;;;;;;;;66.75;55.75;;;;;5.63;100.00;101862.03;4895547;29;50037;-75
2023/03/02 20:34:19;;;;;;;;;64.00;52.25;;;;;5.97;100.00;101927.44;4903773;29;49692;-74
2023/03/02 20:36:44;;;;;;;;;66.25;52.00;;;;;5.55;100.00;101872.00;4894566;29;49966;-69
2023/03/02 20:39:24;;;;;;;;;59.50;50.25;;;;;5.93;100.00;101939.41;4894447;29;50154;-69
2023/03/02 20:41:50;;;;;;;;;64.00;48.00;;;;;6.09;100.00;101963.75;4894180;29;50791;-70
2023/03/02 20:44:16;;;;;;;;;63.50;51.50;;;;;5.92;100.00;101931.50;4888166;29;49868;-72
2023/03/02 20:46:46;;;;;;;;;65.00;52.00;;;;;6.06;100.00;101963.56;4894502;29;49721;-71
2023/03/02 20:49:12;;;;;;;;;65.25;52.75;;;;;5.87;100.00;101928.56;4902149;29;49852;-64
2023/03/02 20:51:40;;;;;;;;;66.25;51.25;;;;;5.84;100.00;101931.00;4911908;29;50624;-79
2023/03/02 20:54:06;;;;;;;;;65.00;51.00;;;;;5.75;100.00;101920.03;4911847;29;49305;-75
2023/03/02 20:56:31;;;;;;;;;64.00;47.75;;;;;5.51;100.00;101896.06;4911713;29;49338;-65
2023/03/02 20:58:57;;;;;;;;;59.75;48.00;;;;;5.65;100.00;101916.00;4906754;29;49845;-69
2023/03/02 21:01:22;;;;;;;;;64.25;54.25;;;;;5.68;100.00;101930.91;4900221;29;50292;-72
2023/03/02 21:03:48;;;;;;;;;62.00;50.00;;;;;5.71;100.00;101925.91;4877537;29;49796;-62
2023/03/02 21:06:15;;;;;;;;;72.50;56.75;;;;;5.86;100.00;101968.47;4893930;29;49757;-65
2023/03/02 21:08:41;;;;;;;;;70.25;52.50;;;;;5.92;100.00;101975.81;4894210;28;50018;-66
2023/03/02 21:11:12;;;;;;;;;63.50;49.75;;;;;5.85;100.00;101963.19;4892210;29;51381;-63
2023/03/02 21:13:38;;;;;;;;;67.00;51.25;;;;;5.45;100.00;101899.19;4893936;28;49666;-62
2023/03/02 21:16:05;;;;;;;;;69.50;52.00;;;;;5.81;100.00;101969.94;4893822;28;49919;-63
2023/03/02 21:18:33;;;;;;;;;68.00;54.00;;;;;5.55;100.00;101928.41;4886732;28;49831;-63
2023/03/02 21:20:59;;;;;;;;;67.00;55.00;;;;;5.54;100.00;101931.81;4892624;29;50523;-63
2023/03/02 21:23:25;;;;;;;;;73.33;54.33;;;;;5.42;100.00;101913.75;4899796;29;49967;-62
2023/03/02 21:25:50;;;;;;;;;66.67;51.67;;;;;5.35;100.00;101904.66;4893719;28;49951;-62
2023/03/02 21:28:15;;;;;;;;;61.00;50.75;;;;;5.49;100.00;101931.53;4893848;28;50004;-62
2023/03/02 21:30:42;;;;;;;;;62.25;50.75;;;;;5.19;100.00;101881.13;4893343;28;50627;-62
2023/03/02 21:33:07;;;;;;;;;62.67;52.67;;;;;5.22;100.00;101894.34;4901444;28;49629;-63
2023/03/02 21:35:32;;;;;;;;;65.00;53.33;;;;;5.55;100.00;101942.31;4902137;29;49894;-62
